createdAt,value
2023-02-03T00:01:02.549Z,100950.56
2023-02-03T00:03:05.000Z,100950.78
2023-02-03T00:05:07.621Z,100958.22
2023-02-03T00:07:12.517Z,100957.16
2023-02-03T00:09:15.560Z,100958.88
2023-02-03T00:11:17.542Z,100955.47
2023-02-03T00:13:19.508Z,100955.41
2023-02-03T00:15:23.405Z,100961.25
2023-02-03T00:17:25.417Z,100953.44
2023-02-03T00:19:27.231Z,100956.47
2023-02-03T00:21:29.211Z,100964.88
2023-02-03T00:23:32.332Z,100956.28
2023-02-03T00:25:34.669Z,100961.91
2023-02-03T00:27:36.733Z,100966.88
2023-02-03T00:29:38.575Z,100960.56
2023-02-03T00:31:40.529Z,100963.81
2023-02-03T00:33:42.460Z,100968.81
2023-02-03T00:35:44.344Z,100977.94
2023-02-03T00:37:52.629Z,100977.19
2023-02-03T00:39:54.704Z,100975.94
2023-02-03T00:41:58.547Z,100988.41
2023-02-03T00:44:00.449Z,100986.00
2023-02-03T00:46:02.376Z,100983.25
2023-02-03T00:48:05.070Z,100991.88
2023-02-03T00:50:08.143Z,100986.16
2023-02-03T00:52:10.018Z,100987.72
2023-02-03T00:54:12.248Z,100989.50
2023-02-03T00:56:14.335Z,100991.16
2023-02-03T00:58:17.202Z,100991.97
2023-02-03T01:00:20.059Z,100997.03
2023-02-03T01:02:22.195Z,101004.66
2023-02-03T01:04:24.137Z,100993.25
2023-02-03T01:06:26.568Z,100986.41
2023-02-03T01:08:28.378Z,100989.88
2023-02-03T01:10:30.628Z,100983.97
2023-02-03T01:12:33.121Z,100990.13
2023-02-03T01:14:35.390Z,100991.59
2023-02-03T01:16:38.465Z,100993.22
2023-02-03T01:18:42.015Z,101000.22
2023-02-03T01:20:43.944Z,100996.75
2023-02-03T01:22:45.859Z,100996.13
2023-02-03T01:24:47.723Z,100996.75
2023-02-03T01:26:49.679Z,100995.22
2023-02-03T01:28:53.121Z,101000.09
2023-02-03T01:30:55.072Z,100996.13
2023-02-03T01:32:57.308Z,100992.47
2023-02-03T01:34:59.231Z,100996.13
2023-02-03T01:37:01.028Z,100999.53
2023-02-03T01:39:09.034Z,101001.84
2023-02-03T01:41:15.255Z,100996.69
2023-02-03T01:43:39.068Z,100991.03
2023-02-03T01:45:41.121Z,100984.78
2023-02-03T01:47:48.984Z,100985.56
2023-02-03T01:50:15.894Z,100992.47
2023-02-03T01:52:18.061Z,100982.16
2023-02-03T01:54:27.049Z,100974.31
2023-02-03T01:56:32.835Z,100978.50
2023-02-03T01:58:39.970Z,100982.72
2023-02-03T02:00:43.687Z,100984.44
2023-02-03T02:02:49.216Z,100978.41
2023-02-03T02:04:59.575Z,100977.72
2023-02-03T02:07:02.301Z,100974.97
2023-02-03T02:09:04.902Z,100972.13
2023-02-03T02:11:07.673Z,100968.03
2023-02-03T02:13:09.594Z,100961.94
2023-02-03T02:15:11.615Z,100969.44
2023-02-03T02:17:33.825Z,100964.28
2023-02-03T02:19:58.833Z,100964.25
2023-02-03T02:22:18.714Z,100959.97
2023-02-03T02:24:51.433Z,100963.16
2023-02-03T02:27:06.207Z,100960.63
2023-02-03T02:29:41.540Z,100963.16
2023-02-03T02:32:06.385Z,100959.72
2023-02-03T02:34:35.241Z,100963.03
2023-02-03T02:36:56.814Z,100957.09
2023-02-03T02:39:10.533Z,100952.63
2023-02-03T02:41:44.956Z,100951.78
2023-02-03T02:44:13.194Z,100941.25
2023-02-03T02:46:24.422Z,100947.19
2023-02-03T02:48:48.316Z,100941.44
2023-02-03T02:50:54.026Z,100942.84
2023-02-03T02:52:57.482Z,100941.69
2023-02-03T02:55:08.378Z,100934.78
2023-02-03T02:57:13.742Z,100934.69
2023-02-03T02:59:16.619Z,100937.16
2023-02-03T03:01:19.384Z,100942.91
2023-02-03T03:03:24.218Z,100949.59
2023-02-03T03:05:26.946Z,100944.28
2023-02-03T03:07:30.432Z,100941.63
2023-02-03T03:09:55.431Z,100940.78
2023-02-03T03:12:31.887Z,100939.00
2023-02-03T03:14:36.649Z,100942.31
2023-02-03T03:16:44.495Z,100948.69
2023-02-03T03:19:11.841Z,100953.56
2023-02-03T03:21:20.231Z,100950.78
2023-02-03T03:23:32.397Z,100955.41
2023-02-03T03:25:46.519Z,100951.97
2023-02-03T03:27:57.302Z,100952.81
2023-02-03T03:30:13.369Z,100942.00
2023-02-03T03:32:15.943Z,100932.63
2023-02-03T03:34:18.683Z,100924.16
2023-02-03T03:36:33.369Z,100930.94
2023-02-03T03:38:44.431Z,100926.50
2023-02-03T03:41:04.365Z,100927.47
2023-02-03T03:43:14.938Z,100925.78
2023-02-03T03:45:20.143Z,100912.91
2023-02-03T03:47:35.253Z,100918.91
2023-02-03T03:49:41.193Z,100921.22
2023-02-03T03:51:55.525Z,100920.53
2023-02-03T03:54:05.131Z,100928.63
2023-02-03T03:56:11.348Z,100917.97
2023-02-03T03:58:19.872Z,100919.50
2023-02-03T04:00:25.703Z,100920.84
2023-02-03T04:02:30.434Z,100920.59
2023-02-03T04:04:35.569Z,100930.84
2023-02-03T04:06:42.639Z,100933.09
2023-02-03T04:08:44.599Z,100931.97
2023-02-03T04:10:46.653Z,100936.78
2023-02-03T04:12:48.495Z,100939.03
2023-02-03T04:14:50.469Z,100935.19
2023-02-03T04:16:52.392Z,100938.44
2023-02-03T04:18:55.272Z,100938.47
2023-02-03T04:20:57.127Z,100938.09
2023-02-03T04:22:59.858Z,100942.09
2023-02-03T04:25:01.813Z,100934.16
2023-02-03T04:27:05.488Z,100927.75
2023-02-03T04:29:07.536Z,100932.72
2023-02-03T04:31:09.471Z,100935.38
2023-02-03T04:33:11.407Z,100929.91
2023-02-03T04:35:14.851Z,100934.97
2023-02-03T04:37:16.757Z,100937.78
2023-02-03T04:39:18.734Z,100937.13
2023-02-03T04:41:20.662Z,100932.72
2023-02-03T04:43:22.596Z,100938.84
2023-02-03T04:45:24.532Z,100931.22
2023-02-03T04:47:26.366Z,100923.97
2023-02-03T04:49:28.241Z,100924.63
2023-02-03T04:51:30.392Z,100920.56
2023-02-03T04:53:32.810Z,100916.88
2023-02-03T04:55:35.631Z,100913.72
2023-02-03T04:57:37.507Z,100907.28
2023-02-03T04:59:39.452Z,100910.47
2023-02-03T05:01:41.300Z,100897.81
2023-02-03T05:03:43.319Z,100896.34
2023-02-03T05:05:45.296Z,100895.50
2023-02-03T05:07:47.392Z,100900.41
2023-02-03T05:09:49.296Z,100891.22
2023-02-03T05:11:51.304Z,100893.72
2023-02-03T05:13:54.633Z,100895.19
2023-02-03T05:15:56.450Z,100894.63
2023-02-03T05:17:58.420Z,100889.00
2023-02-03T05:20:00.253Z,100882.50
2023-02-03T05:22:02.191Z,100882.19
2023-02-03T05:24:08.138Z,100882.84
2023-02-03T05:26:10.380Z,100874.25
2023-02-03T05:28:12.479Z,100870.16
2023-02-03T05:30:14.521Z,100874.81
2023-02-03T05:32:16.441Z,100881.31
2023-02-03T05:34:18.308Z,100888.84
2023-02-03T05:36:21.483Z,100878.03
2023-02-03T05:38:25.673Z,100877.53
2023-02-03T05:40:47.065Z,100881.31
2023-02-03T05:42:49.590Z,100868.13
2023-02-03T05:44:51.548Z,100874.59
2023-02-03T05:46:56.896Z,100868.13
2023-02-03T05:48:58.800Z,100873.53
2023-02-03T05:51:00.697Z,100863.50
2023-02-03T05:53:04.892Z,100873.53
2023-02-03T05:55:07.103Z,100866.19
2023-02-03T05:57:08.929Z,100868.38
2023-02-03T05:59:10.978Z,100867.22
2023-02-03T06:01:12.814Z,100866.09
2023-02-03T06:03:14.744Z,100871.28
2023-02-03T06:05:16.726Z,100869.53
2023-02-03T06:07:24.317Z,100865.97
2023-02-03T06:09:26.224Z,100863.34
2023-02-03T06:11:28.647Z,100863.97
2023-02-03T06:13:30.526Z,100856.25
2023-02-03T06:15:32.488Z,100849.72
2023-02-03T06:17:36.203Z,100855.50
2023-02-03T06:19:38.334Z,100847.03
2023-02-03T06:21:40.256Z,100849.56
2023-02-03T06:23:43.112Z,100847.53
2023-02-03T06:25:49.751Z,100847.44
2023-02-03T06:27:52.107Z,100840.84
2023-02-03T06:29:54.096Z,100845.81
2023-02-03T06:31:56.104Z,100835.97
2023-02-03T06:33:59.663Z,100833.31
2023-02-03T06:36:01.626Z,100826.78
2023-02-03T06:38:03.453Z,100826.69
2023-02-03T06:40:06.451Z,100835.09
2023-02-03T06:42:08.484Z,100826.28
2023-02-03T06:44:10.416Z,100826.28
2023-02-03T06:46:12.773Z,100812.91
2023-02-03T06:48:15.046Z,100815.38
2023-02-03T06:50:17.257Z,100808.94
2023-02-03T06:52:19.454Z,100808.97
2023-02-03T06:54:22.796Z,100805.81
2023-02-03T06:56:24.943Z,100794.22
2023-02-03T06:58:26.806Z,100790.19
2023-02-03T07:00:29.021Z,100792.97
2023-02-03T07:02:31.286Z,100776.06
2023-02-03T07:04:33.328Z,100782.91
2023-02-03T07:06:35.364Z,100777.91
2023-02-03T07:08:37.281Z,100776.53
2023-02-03T07:10:39.131Z,100776.50
2023-02-03T07:12:41.069Z,100760.75
2023-02-03T07:14:42.935Z,100755.78
2023-02-03T07:16:44.898Z,100746.25
2023-02-03T07:18:48.239Z,100746.63
2023-02-03T07:20:51.796Z,100743.44
2023-02-03T07:22:55.459Z,100746.63
2023-02-03T07:24:57.362Z,100738.41
2023-02-03T07:26:59.292Z,100740.94
2023-02-03T07:29:01.264Z,100747.28
2023-02-03T07:31:05.027Z,100747.28
2023-02-03T07:33:08.153Z,100741.63
2023-02-03T07:35:10.099Z,100737.34
2023-02-03T07:37:12.032Z,100730.78
2023-02-03T07:39:14.032Z,100725.13
2023-02-03T07:41:18.252Z,100719.16
2023-02-03T07:43:20.816Z,100721.13
2023-02-03T07:45:24.996Z,100709.41
2023-02-03T07:47:27.876Z,100713.63
2023-02-03T07:49:29.854Z,100701.97
2023-02-03T07:51:32.163Z,100697.69
2023-02-03T07:53:35.576Z,100691.91
2023-02-03T07:55:40.944Z,100691.41
2023-02-03T07:57:43.802Z,100691.56
2023-02-03T07:59:47.106Z,100682.75
2023-02-03T08:01:49.169Z,100684.78
2023-02-03T08:03:55.131Z,100677.22
2023-02-03T08:05:57.225Z,100676.63
2023-02-03T08:07:59.682Z,100671.78
2023-02-03T08:10:01.817Z,100672.25
2023-02-03T08:12:04.061Z,100670.75
2023-02-03T08:14:06.000Z,100664.09
2023-02-03T08:16:07.968Z,100659.19
2023-02-03T08:18:10.115Z,100659.19
2023-02-03T08:20:14.905Z,100652.66
2023-02-03T08:22:16.902Z,100646.03
2023-02-03T08:24:21.172Z,100642.69
2023-02-03T08:26:23.263Z,100645.44
2023-02-03T08:28:26.338Z,100637.00
2023-02-03T08:30:28.489Z,100638.78
2023-02-03T08:32:30.759Z,100641.63
2023-02-03T08:36:54.674Z,100633.31
2023-02-03T08:39:01.317Z,100629.84
2023-02-03T08:41:09.148Z,100616.28
2023-02-03T08:43:11.523Z,100618.69
2023-02-03T08:45:13.542Z,100620.28
2023-02-03T08:47:16.850Z,100612.84
2023-02-03T08:49:19.801Z,100612.66
2023-02-03T08:51:25.015Z,100606.47
2023-02-03T08:53:28.346Z,100604.16
2023-02-03T08:55:30.408Z,100600.69
2023-02-03T08:57:37.222Z,100600.19
2023-02-03T08:59:42.944Z,100581.50
2023-02-03T09:01:46.189Z,100581.44
2023-02-03T09:03:48.299Z,100578.44
2023-02-03T09:05:50.289Z,100574.97
2023-02-03T09:07:53.489Z,100566.31
2023-02-03T09:09:56.218Z,100573.13
2023-02-03T09:12:02.633Z,100569.63
2023-02-03T09:14:06.067Z,100570.31
2023-02-03T09:16:10.250Z,100573.72
2023-02-03T09:18:14.280Z,100566.25
2023-02-03T09:20:16.469Z,100559.53
2023-02-03T09:22:18.471Z,100558.06
2023-02-03T09:24:20.694Z,100544.53
2023-02-03T09:26:23.581Z,100536.25
2023-02-03T09:28:25.973Z,100530.28
2023-02-03T09:30:28.322Z,100528.78
2023-02-03T09:32:30.601Z,100518.59
2023-02-03T09:34:33.564Z,100518.53
2023-02-03T09:36:36.159Z,100502.69
2023-02-03T09:38:38.789Z,100498.31
2023-02-03T09:40:42.838Z,100494.38
2023-02-03T09:43:14.063Z,100481.56
2023-02-03T09:45:26.581Z,100477.38
2023-02-03T09:47:32.853Z,100482.41
2023-02-03T09:49:47.827Z,100465.25
2023-02-03T09:51:56.337Z,100463.50
2023-02-03T09:54:07.455Z,100455.91
2023-02-03T09:56:30.999Z,100454.44
2023-02-03T09:58:36.291Z,100448.50
2023-02-03T10:00:49.138Z,100444.38
2023-02-03T10:03:14.338Z,100433.56
2023-02-03T10:05:26.705Z,100425.06
2023-02-03T10:08:01.956Z,100417.28
2023-02-03T10:10:19.272Z,100413.78
2023-02-03T10:12:49.738Z,100407.91
2023-02-03T10:15:09.439Z,100405.34
2023-02-03T10:17:41.912Z,100403.66
2023-02-03T10:20:17.851Z,100404.38
2023-02-03T10:22:26.160Z,100388.13
2023-02-03T10:24:40.862Z,100382.94
2023-02-03T10:26:43.054Z,100375.25
2023-02-03T10:29:07.217Z,100367.59
2023-02-03T10:31:19.758Z,100366.91
2023-02-03T10:33:32.602Z,100360.88
2023-02-03T10:35:51.055Z,100346.34
2023-02-03T10:37:58.349Z,100343.78
2023-02-03T10:40:04.477Z,100342.88
2023-02-03T10:42:07.502Z,100329.16
2023-02-03T10:44:13.605Z,100323.97
2023-02-03T10:46:19.476Z,100318.00
2023-02-03T10:48:23.286Z,100309.50
2023-02-03T10:50:32.044Z,100309.50
2023-02-03T10:52:36.254Z,100299.22
2023-02-03T10:54:39.224Z,100288.91
2023-02-03T10:56:41.513Z,100277.06
2023-02-03T10:58:55.843Z,100276.31
2023-02-03T11:01:07.171Z,100266.94
2023-02-03T11:03:25.501Z,100257.59
2023-02-03T11:05:28.673Z,100242.25
2023-02-03T11:07:30.897Z,100232.00
2023-02-03T11:09:38.880Z,100218.47
2023-02-03T11:11:42.170Z,100212.50
2023-02-03T11:13:46.107Z,100201.47
2023-02-03T11:15:58.768Z,100198.94
2023-02-03T11:18:00.903Z,100195.56
2023-02-03T11:20:13.913Z,100182.00
2023-02-03T11:22:37.391Z,100175.22
2023-02-03T11:24:42.063Z,100170.94
2023-02-03T11:26:49.479Z,100171.06
2023-02-03T11:28:57.405Z,100161.81
2023-02-03T11:31:01.803Z,100156.75
2023-02-03T11:33:20.011Z,100142.31
2023-02-03T11:35:30.130Z,100139.72
2023-02-03T11:37:39.207Z,100136.22
2023-02-03T11:39:41.683Z,100126.88
2023-02-03T11:41:43.894Z,100113.31
2023-02-03T11:43:48.705Z,100105.69
2023-02-03T11:45:59.842Z,100099.75
2023-02-03T11:48:11.118Z,100103.19
2023-02-03T11:50:44.149Z,100098.19
2023-02-03T11:52:59.019Z,100089.72
2023-02-03T11:55:15.099Z,100083.81
2023-02-03T11:57:53.124Z,100082.09
2023-02-03T12:00:13.423Z,100087.16
2023-02-03T12:02:46.331Z,100073.63
2023-02-03T12:04:58.195Z,100072.72
2023-02-03T12:07:31.539Z,100071.91
2023-02-03T12:09:56.831Z,100068.41
2023-02-03T12:12:18.402Z,100065.81
2023-02-03T12:15:06.581Z,100061.53
2023-02-03T12:17:25.475Z,100052.19
2023-02-03T12:19:48.539Z,100047.94
2023-02-03T12:22:00.964Z,100041.09
2023-02-03T12:24:25.784Z,100030.97
2023-02-03T12:26:47.429Z,100028.47
2023-02-03T12:28:51.403Z,100022.50
2023-02-03T12:31:00.709Z,100014.03
2023-02-03T12:33:16.546Z,100019.16
2023-02-03T12:35:27.060Z,100008.16
2023-02-03T12:37:34.636Z,99997.09
2023-02-03T12:39:48.342Z,99987.72
2023-02-03T12:42:01.045Z,99975.00
2023-02-03T12:44:17.870Z,99980.16
2023-02-03T12:46:45.374Z,99969.97
2023-02-03T12:49:21.544Z,99958.00
2023-02-03T12:51:39.566Z,99941.84
2023-02-03T12:53:49.207Z,99931.63
2023-02-03T12:56:01.288Z,99929.06
2023-02-03T12:58:11.976Z,99923.94
2023-02-03T13:00:21.976Z,99918.78
2023-02-03T13:02:29.921Z,99908.44
2023-02-03T13:04:36.335Z,99903.38
2023-02-03T13:06:52.979Z,99888.75
2023-02-03T13:09:09.162Z,99881.09
2023-02-03T13:11:29.212Z,99873.41
2023-02-03T13:13:40.200Z,99865.78
2023-02-03T13:15:50.802Z,99857.22
2023-02-03T13:18:11.632Z,99844.53
2023-02-03T13:20:23.980Z,99830.06
2023-02-03T13:22:26.262Z,99837.56
2023-02-03T13:24:34.168Z,99821.56
2023-02-03T13:26:55.573Z,99809.66
2023-02-03T13:29:22.685Z,99801.03
2023-02-03T13:31:27.854Z,99790.84
2023-02-03T13:33:48.958Z,99783.16
2023-02-03T13:35:59.893Z,99776.44
2023-02-03T13:38:53.170Z,99766.25
2023-02-03T13:41:24.853Z,99762.00
2023-02-03T13:43:38.722Z,99762.84
2023-02-03T13:45:45.455Z,99754.28
2023-02-03T13:47:53.416Z,99756.88
2023-02-03T13:50:02.970Z,99746.66
2023-02-03T13:52:05.282Z,99754.28
2023-02-03T13:54:14.826Z,99744.16
2023-02-03T13:56:25.648Z,99745.00
2023-02-03T13:58:31.296Z,99736.44
2023-02-03T14:00:45.246Z,99725.47
2023-02-03T14:02:54.799Z,99719.53
2023-02-03T14:04:59.938Z,99713.66
2023-02-03T14:07:03.901Z,99711.91
2023-02-03T14:09:36.103Z,99704.28
2023-02-03T14:11:40.624Z,99695.72
2023-02-03T14:14:07.443Z,99689.84
2023-02-03T14:16:39.629Z,99680.56
2023-02-03T14:18:46.660Z,99672.09
2023-02-03T14:20:52.920Z,99664.50
2023-02-03T14:23:06.545Z,99665.34
2023-02-03T14:25:09.763Z,99666.19
2023-02-03T14:27:25.288Z,99656.03
2023-02-03T14:29:38.009Z,99660.25
2023-02-03T14:32:05.398Z,99643.34
2023-02-03T14:34:19.224Z,99638.25
2023-02-03T14:36:41.836Z,99634.91
2023-02-03T14:38:43.994Z,99634.09
2023-02-03T14:40:54.995Z,99631.50
2023-02-03T14:43:38.071Z,99623.00
2023-02-03T14:45:57.828Z,99615.41
2023-02-03T14:48:14.660Z,99618.00
2023-02-03T14:50:23.515Z,99610.34
2023-02-03T14:53:07.175Z,99612.06
2023-02-03T14:55:36.071Z,99604.44
2023-02-03T14:57:45.616Z,99595.13
2023-02-03T15:00:27.740Z,99592.59
2023-02-03T15:02:32.708Z,99589.16
2023-02-03T15:04:35.340Z,99579.09
2023-02-03T15:06:43.300Z,99575.69
2023-02-03T15:08:48.764Z,99585.75
2023-02-03T15:10:56.665Z,99568.09
2023-02-03T15:12:59.206Z,99573.16
2023-02-03T15:15:29.356Z,99564.66
2023-02-03T15:17:32.497Z,99562.13
2023-02-03T15:19:38.605Z,99554.56
2023-02-03T15:21:42.647Z,99547.72
2023-02-03T15:23:52.097Z,99550.22
2023-02-03T15:25:59.274Z,99543.47
2023-02-03T15:28:20.762Z,99533.41
2023-02-03T15:30:28.485Z,99531.66
2023-02-03T15:32:40.937Z,99526.59
2023-02-03T15:34:51.406Z,99531.69
2023-02-03T15:36:58.001Z,99531.66
2023-02-03T15:39:11.824Z,99536.78
2023-02-03T15:41:23.287Z,99525.78
2023-02-03T15:43:34.140Z,99532.56
2023-02-03T15:45:54.776Z,99523.28
2023-02-03T15:48:22.188Z,99523.22
2023-02-03T15:50:47.864Z,99517.34
2023-02-03T15:52:55.661Z,99510.53
2023-02-03T15:55:21.623Z,99507.97
2023-02-03T15:57:26.137Z,99505.47
2023-02-03T15:59:31.220Z,99506.28
2023-02-03T16:01:35.811Z,99491.91
2023-02-03T16:03:44.867Z,99503.75
2023-02-03T16:05:49.876Z,99491.06
2023-02-03T16:07:52.689Z,99493.63
2023-02-03T16:09:57.214Z,99491.91
2023-02-03T16:12:22.354Z,99505.50
2023-02-03T16:14:36.764Z,99492.78
2023-02-03T16:17:04.937Z,99491.94
2023-02-03T16:19:22.648Z,99490.28
2023-02-03T16:21:35.123Z,99487.69
2023-02-03T16:23:49.871Z,99478.44
2023-02-03T16:26:15.746Z,99479.28
2023-02-03T16:28:37.237Z,99480.13
2023-02-03T16:30:58.198Z,99471.66
2023-02-03T16:33:27.708Z,99475.88
2023-02-03T16:35:49.450Z,99470.81
2023-02-03T16:38:11.659Z,99465.75
2023-02-03T16:40:35.557Z,99464.03
2023-02-03T16:42:58.685Z,99455.63
2023-02-03T16:45:19.282Z,99458.13
2023-02-03T16:47:46.266Z,99448.81
2023-02-03T16:50:09.955Z,99450.53
2023-02-03T16:52:16.443Z,99453.09
2023-02-03T16:54:19.736Z,99443.78
2023-02-03T16:56:21.827Z,99449.69
2023-02-03T16:58:24.389Z,99453.91
2023-02-03T17:00:27.613Z,99457.34
2023-02-03T17:02:31.101Z,99466.63
2023-02-03T17:04:38.413Z,99458.16
2023-02-03T17:06:41.710Z,99452.25
2023-02-03T17:08:43.872Z,99457.31
2023-02-03T17:10:48.725Z,99453.91
2023-02-03T17:12:53.345Z,99451.41
2023-02-03T17:14:58.598Z,99452.25
2023-02-03T17:17:02.170Z,99437.63
2023-02-03T17:19:04.869Z,99438.50
2023-02-03T17:21:09.891Z,99448.59
2023-02-03T17:23:16.896Z,99458.75
2023-02-03T17:25:21.803Z,99454.53
2023-02-03T17:27:26.591Z,99458.75
2023-02-03T17:29:29.680Z,99454.53
2023-02-03T17:31:33.027Z,99459.59
2023-02-03T17:33:35.411Z,99465.50
2023-02-03T17:35:45.888Z,99457.06
2023-02-03T17:37:48.185Z,99454.47
2023-02-03T17:54:02.415Z,99463.84
2023-02-03T17:56:14.081Z,99463.81
2023-02-03T17:58:18.693Z,99468.03
2023-02-03T18:00:22.900Z,99468.94
2023-02-03T18:02:25.219Z,99470.63
2023-02-03T18:04:27.753Z,99467.19
2023-02-03T18:06:32.045Z,99466.38
2023-02-03T18:08:44.021Z,99477.38
2023-02-03T18:10:47.578Z,99482.47
2023-02-03T18:12:49.708Z,99474.81
2023-02-03T18:14:51.964Z,99489.22
2023-02-03T18:16:55.865Z,99501.88
2023-02-03T18:19:04.347Z,99502.75
2023-02-03T18:21:07.057Z,99501.91
2023-02-03T18:23:11.298Z,99508.69
2023-02-03T18:25:17.126Z,99506.13
2023-02-03T18:27:20.031Z,99503.59
2023-02-03T18:29:25.059Z,99502.72
2023-02-03T18:31:28.132Z,99500.16
2023-02-03T18:33:31.190Z,99507.81
2023-02-03T18:35:35.077Z,99504.41
2023-02-03T18:37:43.264Z,99516.28
2023-02-03T18:39:51.603Z,99511.22
2023-02-03T18:41:54.894Z,99506.94
2023-02-03T18:43:57.757Z,99511.19
2023-02-03T18:46:05.864Z,99513.72
2023-02-03T18:48:10.105Z,99517.94
2023-02-03T18:50:12.802Z,99527.34
2023-02-03T18:52:18.536Z,99529.09
2023-02-03T18:54:23.786Z,99535.03
2023-02-03T18:56:35.656Z,99539.28
2023-02-03T18:58:39.846Z,99542.66
2023-02-03T19:00:44.374Z,99535.06
2023-02-03T19:02:55.036Z,99538.47
2023-02-03T19:04:57.898Z,99545.25
2023-02-03T19:07:02.912Z,99544.44
2023-02-03T19:09:06.210Z,99552.06
2023-02-03T19:11:12.518Z,99554.59
2023-02-03T19:13:15.520Z,99556.28
2023-02-03T19:15:20.134Z,99556.28
2023-02-03T19:17:24.384Z,99558.78
2023-02-03T19:19:27.960Z,99554.56
2023-02-03T19:21:30.459Z,99559.69
2023-02-03T19:23:33.693Z,99556.31
2023-02-03T19:25:39.132Z,99556.28
2023-02-03T19:27:43.373Z,99559.69
2023-02-03T19:29:47.353Z,99562.19
2023-02-03T19:31:53.422Z,99557.09
2023-02-03T19:34:03.312Z,99560.53
2023-02-03T19:36:07.554Z,99554.59
2023-02-03T19:38:11.864Z,99558.00
2023-02-03T19:40:18.293Z,99561.34
2023-02-03T19:42:22.103Z,99565.53
2023-02-03T19:44:26.122Z,99571.47
2023-02-03T19:46:32.762Z,99573.16
2023-02-03T19:48:36.343Z,99571.50
2023-02-03T19:50:41.565Z,99565.56
2023-02-03T19:52:45.139Z,99564.72
2023-02-03T19:54:49.264Z,99560.53
2023-02-03T19:56:54.185Z,99569.81
2023-02-03T19:58:57.192Z,99570.63
2023-02-03T20:01:03.463Z,99572.34
2023-02-03T20:03:09.704Z,99580.78
2023-02-03T20:05:16.143Z,99577.41
2023-02-03T20:07:18.965Z,99585.06
2023-02-03T20:09:22.171Z,99590.94
2023-02-03T20:11:26.108Z,99590.13
2023-02-03T20:13:29.501Z,99586.75
2023-02-03T20:15:32.656Z,99589.25
2023-02-03T20:17:45.687Z,99591.78
2023-02-03T20:19:49.971Z,99585.84
2023-02-03T20:21:55.233Z,99588.44
2023-02-03T20:23:58.322Z,99596.06
2023-02-03T20:26:01.277Z,99602.81
2023-02-03T20:28:08.057Z,99611.25
2023-02-03T20:30:13.098Z,99624.88
2023-02-03T20:32:18.642Z,99630.72
2023-02-03T20:34:21.474Z,99631.56
2023-02-03T20:36:25.082Z,99629.88
2023-02-03T20:38:30.252Z,99623.94
2023-02-03T20:40:33.424Z,99613.91
2023-02-03T20:42:36.371Z,99609.59
2023-02-03T20:44:41.581Z,99600.28
2023-02-03T20:46:46.458Z,99604.50
2023-02-03T20:48:49.093Z,99609.59
2023-02-03T20:50:54.328Z,99612.16
2023-02-03T20:53:00.272Z,99619.72
2023-02-03T20:55:13.236Z,99626.53
2023-02-03T20:57:18.282Z,99634.97
2023-02-03T20:59:22.359Z,99646.75
2023-02-03T21:01:29.811Z,99629.84
2023-02-03T21:03:53.301Z,99629.00
2023-02-03T21:05:57.441Z,99643.41
2023-02-03T21:08:02.849Z,99652.72
2023-02-03T21:10:25.207Z,99664.59
2023-02-03T21:12:31.014Z,99678.94
2023-02-03T21:14:43.241Z,99685.72
2023-02-03T21:16:47.887Z,99680.72
2023-02-03T21:18:54.911Z,99680.72
2023-02-03T21:20:58.351Z,99684.00
2023-02-03T21:23:02.381Z,99689.09
2023-02-03T21:25:08.262Z,99683.16
2023-02-03T21:27:34.596Z,99684.84
2023-02-03T21:29:37.228Z,99688.28
2023-02-03T21:31:40.778Z,99691.66
2023-02-03T21:33:44.072Z,99713.72
2023-02-03T21:35:47.657Z,99711.91
2023-02-03T21:38:02.085Z,99710.25
2023-02-03T21:40:27.067Z,99708.59
2023-02-03T21:42:42.808Z,99700.97
2023-02-03T21:44:46.436Z,99698.44
2023-02-03T21:46:49.090Z,99697.53
2023-02-03T21:48:53.713Z,99704.34
2023-02-03T21:51:16.907Z,99706.03
2023-02-03T21:53:36.083Z,99711.13
2023-02-03T21:55:41.141Z,99712.88
2023-02-03T21:57:43.713Z,99721.25
2023-02-03T21:59:50.289Z,99712.84
2023-02-03T22:01:58.644Z,99717.91
2023-02-03T22:04:02.602Z,99725.47
2023-02-03T22:06:25.805Z,99731.38
2023-02-03T22:08:34.255Z,99737.38
2023-02-03T22:10:36.361Z,99743.22
2023-02-03T22:12:38.464Z,99742.47
2023-02-03T22:14:40.611Z,99748.38
2023-02-03T22:16:43.784Z,99750.03
2023-02-03T22:18:47.604Z,99754.31
2023-02-03T22:20:49.654Z,99761.06
2023-02-03T22:22:51.692Z,99760.19
2023-02-03T22:24:53.821Z,99756.81
2023-02-03T22:27:00.305Z,99773.00
2023-02-03T22:29:02.811Z,99768.66
2023-02-03T22:31:05.411Z,99762.72
2023-02-03T22:33:07.905Z,99759.31
2023-02-03T22:35:10.028Z,99768.66
2023-02-03T22:37:11.969Z,99758.44
2023-02-03T22:39:14.046Z,99762.63
2023-02-03T22:41:16.022Z,99766.91
2023-02-03T22:43:17.927Z,99764.31
2023-02-03T22:45:21.794Z,99768.50
2023-02-03T22:47:24.714Z,99767.66
2023-02-03T22:49:26.593Z,99771.84
2023-02-03T22:51:28.515Z,99780.28
2023-02-03T22:53:30.519Z,99784.47
2023-02-03T22:55:32.828Z,99781.97
2023-02-03T22:57:35.232Z,99785.25
2023-02-03T22:59:37.179Z,99795.41
2023-02-03T23:01:39.071Z,99788.69
2023-02-03T23:03:41.019Z,99800.50
2023-02-03T23:05:43.012Z,99804.69
2023-02-03T23:07:46.799Z,99808.88
2023-02-03T23:09:48.773Z,99800.47
2023-02-03T23:11:51.738Z,99801.31
2023-02-03T23:13:55.695Z,99811.31
2023-02-03T23:15:57.811Z,99821.44
2023-02-03T23:17:59.801Z,99830.81
2023-02-03T23:20:01.872Z,99844.34
2023-02-03T23:22:03.904Z,99834.88
2023-02-03T23:24:07.426Z,99844.19
2023-02-03T23:26:09.423Z,99854.34
2023-02-03T23:28:11.423Z,99863.53
2023-02-03T23:30:14.566Z,99874.56
2023-02-03T23:32:16.514Z,99881.31
2023-02-03T23:34:37.233Z,99888.09
2023-02-03T23:36:39.250Z,99880.50
2023-02-03T23:38:41.164Z,99891.66
2023-02-03T23:40:43.479Z,99886.47
2023-02-03T23:42:45.560Z,99886.50
2023-02-03T23:44:48.445Z,99895.69
2023-02-03T23:46:50.747Z,99894.91
2023-02-03T23:48:52.880Z,99900.69
2023-02-03T23:50:54.844Z,99913.38
2023-02-03T23:52:56.739Z,99904.97
2023-02-03T23:54:58.638Z,99913.28
2023-02-03T23:57:00.535Z,99911.69
2023-02-03T23:59:02.482Z,99927.63
